This is the latest recevied weather packets stored in our database for station/object EW1917. If no packets are shown the sender has not sent any weather packets the latest 10 day(s).
| Time | Temp. | Humidity | Pressure | Rain* | Wind** | Luminosity | Snow |
|---|---|---|---|---|---|---|---|
| 1778201277 | 10° C | 85% | 1011.8 hPa | 0 mm | - | 0 W/m² | - |
| 1778200070 | 9.44° C | 87% | 1012.1 hPa | 0 mm | - | 0 W/m² | - |
| 1778199774 | 9.44° C | 87% | 1012.2 hPa | 0 mm | - | 0 W/m² | - |
| 1778198273 | 10° C | 87% | 1012.4 hPa | 0 mm | - | 0 W/m² | - |
| 1778196781 | 10° C | 85% | 1012.5 hPa | 0 mm | - | 0 W/m² | - |
| 1778196474 | 10° C | 85% | 1012.7 hPa | 0 mm | - | 0 W/m² | - |
| 1778195280 | 10° C | 86% | 1012.8 hPa | 0 mm | - | 0 W/m² | - |
| 1778194674 | 10° C | 85% | 1012.7 hPa | 0 mm | - | 0 W/m² | - |
| 1778193770 | 10.56° C | 88% | 1012.9 hPa | 0 mm | - | 0 W/m² | - |
| 1778193479 | 10.56° C | 87% | 1012.8 hPa | 0 mm | - | 0 W/m² | - |
| 1778193177 | 10.56° C | 87% | 1012.7 hPa | 0 mm | - | 0 W/m² | - |
| 1778192870 | 10.56° C | 87% | 1012.7 hPa | 0 mm | - | 0 W/m² | - |
| 1778190771 | 11.11° C | 85% | 1012.7 hPa | 0 mm | - | 0 W/m² | - |
| 1778188973 | 11.67° C | 82% | 1012.6 hPa | 0 mm | - | 0 W/m² | - |
| 1778186573 | 11.67° C | 78% | 1012.6 hPa | 0 mm | - | 0 W/m² | - |
| 1778186271 | 11.67° C | 79% | 1012.6 hPa | 0 mm | - | 0 W/m² | - |
| 1778185974 | 11.67° C | 77% | 1012.6 hPa | 0 mm | - | 0 W/m² | - |
| 1778182970 | 13.33° C | 79% | 1012.7 hPa | 0 mm | - | 0 W/m² | - |
| 1778182371 | 13.33° C | 77% | 1012.6 hPa | 0 mm | - | 0 W/m² | - |
| 1778182071 | 13.33° C | 76% | 1012.4 hPa | 0 mm | - | 0 W/m² | - |
| 1778180871 | 14.44° C | 73% | 1012 hPa | 0 mm | - | 0 W/m² | - |
| 1778179073 | 16.11° C | 68% | 1011.6 hPa | 0 mm | - | 0 W/m² | - |
| 1778178174 | 16.67° C | 67% | 1011.7 hPa | 0 mm | - | 7 W/m² | - |
| 1778176974 | 17.78° C | 61% | 1011.5 hPa | 0 mm | - | 21 W/m² | - |
| 1778176373 | 18.33° C | 59% | 1011.3 hPa | 0 mm | - | 25 W/m² | - |
* Rain latest hour (hover to see other rain measurements)
** Current wind speed in m/s (hover to see current wind gust speed)